Altura, Minnesota
Current Conditions -  °F | °C
As of 3:15 PM on Sunday 23 Nov 2014 (Local Time) from KONA Reporting Station
Haze Haze  
Wind Chill:   Ceiling: 1000
Heat Index:   Visibility: 5mi
Dew Point:   Wind: 0mph
Humidity: 93%   Direction: NA
Pressure: 29.36"   Gusts: NA
Location:  44.07°N, 91.94°W
Report Text: KONA 232115Z AUTO 00000KT 5SM BR OVC010 09/08 A2936 RMK AO2
Loading
Personal Weather Stations






























Interactive Weather Map New forecast layout! Learn more

10-Day Weather Forecast

Advertisements
Track Severe Weather on mobile